Time;durP1;ratioP1;P1;durP2;ratioP2;P2;SDS_P1;SDS_P2;PMS_P1;PMS_P2;Temp;Humidity;BMP_temperature;BMP_pressure;BME280_temperature;BME280_humidity;BME280_pressure;Samples;Min_cycle;Max_cycle;Signal;HPM_P1;HPM_P2
2023/06/08 00:02:17;;;;;;;12.82;9.30;;;18.70;99.90;;;;;;5072034;28;20223;-48
2023/06/08 00:04:45;;;;;;;11.70;10.00;;;18.70;99.90;;;;;;5071818;28;20234;-48
2023/06/08 00:07:14;;;;;;;19.15;10.50;;;18.90;99.90;;;;;;5071599;28;20218;-48
2023/06/08 00:09:40;;;;;;;14.75;9.25;;;18.70;99.90;;;;;;5071852;28;20562;-48
2023/06/08 00:12:06;;;;;;;13.00;10.13;;;18.70;99.90;;;;;;5071886;28;20259;-48
2023/06/08 00:14:34;;;;;;;12.70;9.73;;;18.60;99.90;;;;;;5072498;28;20261;-48
2023/06/08 00:17:02;;;;;;;10.77;9.15;;;18.60;99.90;;;;;;5071607;28;20197;-48
2023/06/08 00:19:29;;;;;;;16.90;10.63;;;18.70;99.90;;;;;;5072391;28;20257;-48
2023/06/08 00:21:56;;;;;;;12.60;9.82;;;18.60;99.90;;;;;;5071766;28;20197;-48
2023/06/08 00:24:22;;;;;;;11.15;9.23;;;18.50;99.90;;;;;;5071996;28;20173;-48
2023/06/08 00:26:48;;;;;;;10.15;9.02;;;18.30;99.90;;;;;;5071922;28;20556;-48
2023/06/08 00:29:13;;;;;;;12.60;9.65;;;18.60;99.90;;;;;;5071851;28;20178;-48
2023/06/08 00:31:39;;;;;;;11.00;9.80;;;18.60;99.90;;;;;;5071707;28;20174;-48
2023/06/08 00:34:05;;;;;;;11.63;9.75;;;18.80;99.90;;;;;;5071690;28;20162;-48
2023/06/08 00:36:30;;;;;;;15.73;9.43;;;18.60;99.90;;;;;;5072072;28;20205;-48
2023/06/08 00:38:56;;;;;;;13.18;9.77;;;18.40;99.90;;;;;;5071529;28;20161;-48
2023/06/08 00:41:21;;;;;;;14.10;10.23;;;18.40;99.90;;;;;;5071536;28;20170;-48
2023/06/08 00:43:47;;;;;;;14.25;10.90;;;18.30;99.90;;;;;;5071575;28;20170;-48
2023/06/08 00:46:17;;;;;;;16.10;10.68;;;18.30;99.90;;;;;;5071525;28;20176;-48
2023/06/08 00:48:43;;;;;;;11.40;10.23;;;18.40;99.90;;;;;;5071736;28;20181;-48
2023/06/08 00:51:10;;;;;;;12.98;9.27;;;18.10;99.90;;;;;;5087063;28;20166;-48
2023/06/08 00:53:37;;;;;;;13.98;10.13;;;18.50;99.90;;;;;;5071622;28;20170;-48
2023/06/08 00:56:04;;;;;;;13.75;10.40;;;18.30;99.90;;;;;;5071936;28;20232;-48
2023/06/08 00:58:29;;;;;;;12.57;10.63;;;18.20;99.90;;;;;;5074443;28;20246;-48
2023/06/08 01:00:59;;;;;;;13.60;10.38;;;18.20;99.90;;;;;;5075717;28;20601;-48
2023/06/08 01:03:35;;;;;;;11.77;9.75;;;18.20;99.90;;;;;;5075766;28;20181;-48
2023/06/08 01:06:07;;;;;;;13.27;9.98;;;18.20;99.90;;;;;;5076108;28;20176;-47
2023/06/08 01:08:52;;;;;;;12.93;10.07;;;19.60;99.90;;;;;;5075295;28;20213;-48
2023/06/08 01:11:59;;;;;;;10.77;9.63;;;18.20;99.90;;;;;;5075332;28;20166;-48
2023/06/08 01:14:25;;;;;;;12.48;9.85;;;18.20;99.90;;;;;;5075503;28;20173;-48
2023/06/08 01:16:54;;;;;;;11.73;9.88;;;18.30;99.90;;;;;;5075347;28;20213;-48
2023/06/08 01:19:54;;;;;;;12.60;10.43;;;18.20;99.90;;;;;;5075262;28;20648;-48
2023/06/08 01:22:27;;;;;;;14.93;10.30;;;18.10;99.90;;;;;;5090796;28;20166;-48
2023/06/08 01:24:56;;;;;;;18.67;10.70;;;18.00;99.90;;;;;;5075299;28;20182;-48
2023/06/08 01:27:25;;;;;;;15.48;9.50;;;18.00;99.90;;;;;;5075225;28;20201;-48
2023/06/08 01:29:51;;;;;;;20.45;10.13;;;18.10;99.90;;;;;;5075005;28;20241;-48
2023/06/08 01:32:18;;;;;;;12.27;9.90;;;18.00;99.90;;;;;;5075115;28;20174;-48
2023/06/08 01:34:45;;;;;;;11.27;9.25;;;17.70;99.90;;;;;;5074751;28;20525;-48
2023/06/08 01:37:41;;;;;;;12.73;10.38;;;17.70;99.90;;;;;;5074668;28;20606;-48
2023/06/08 01:40:18;;;;;;;15.93;10.30;;;17.70;99.90;;;;;;5055768;28;20574;-47
2023/06/08 01:42:49;;;;;;;15.30;10.60;;;17.90;99.90;;;;;;5074728;28;20162;-48
2023/06/08 01:45:21;;;;;;;16.38;9.30;;;17.80;99.90;;;;;;5074904;28;20173;-48
2023/06/08 01:47:56;;;;;;;13.95;10.45;;;17.80;99.90;;;;;;5074592;28;20632;-52
2023/06/08 01:50:24;;;;;;;13.50;10.63;;;17.60;99.90;;;;;;5074643;28;20173;-52
2023/06/08 01:52:50;;;;;;;12.18;10.43;;;17.70;99.90;;;;;;5074825;28;20523;-52
2023/06/08 01:55:17;;;;;;;14.55;10.38;;;17.60;99.90;;;;;;5089966;28;20253;-52
2023/06/08 01:57:43;;;;;;;13.77;9.90;;;17.60;99.90;;;;;;5074586;28;20278;-52
2023/06/08 02:00:10;;;;;;;12.23;10.02;;;17.50;99.90;;;;;;5074379;28;20166;-52
2023/06/08 02:02:37;;;;;;;13.50;10.80;;;17.70;99.90;;;;;;5074381;28;20219;-52
2023/06/08 02:05:06;;;;;;;12.65;10.27;;;17.70;99.90;;;;;;5074273;28;20173;-52
2023/06/08 02:07:31;;;;;;;15.38;10.10;;;17.70;99.90;;;;;;5074633;28;20222;-52
2023/06/08 02:09:57;;;;;;;12.40;10.00;;;17.70;99.90;;;;;;5074247;28;20177;-51
2023/06/08 02:12:22;;;;;;;11.02;9.57;;;17.50;99.90;;;;;;5074122;28;20188;-51
2023/06/08 02:14:48;;;;;;;11.57;9.93;;;17.50;99.90;;;;;;5074208;28;20166;-52
2023/06/08 02:17:18;;;;;;;16.05;10.30;;;17.40;99.90;;;;;;5074079;28;20202;-52
2023/06/08 02:19:44;;;;;;;13.20;10.57;;;17.40;99.90;;;;;;5074345;28;20186;-51
2023/06/08 02:22:10;;;;;;;14.52;11.05;;;17.30;99.90;;;;;;5074190;28;20202;-52
2023/06/08 02:24:36;;;;;;;14.50;10.60;;;17.20;99.90;;;;;;5073887;28;20159;-52
2023/06/08 02:27:02;;;;;;;16.90;11.38;;;17.30;99.90;;;;;;5074390;28;20188;-49
2023/06/08 02:29:28;;;;;;;15.38;10.88;;;17.30;99.90;;;;;;5074244;28;20168;-51
2023/06/08 02:31:53;;;;;;;18.80;11.38;;;17.20;99.90;;;;;;5073800;28;20245;-50
2023/06/08 02:34:19;;;;;;;12.90;10.88;;;17.20;99.90;;;;;;5073723;28;20170;-52
2023/06/08 02:36:47;;;;;;;12.60;10.90;;;17.60;99.90;;;;;;5073651;28;20210;-51
2023/06/08 02:39:13;;;;;;;15.38;11.02;;;17.30;99.90;;;;;;5073654;28;20166;-51
2023/06/08 02:41:39;;;;;;;14.05;10.95;;;17.20;99.90;;;;;;5073716;28;20652;-51
2023/06/08 02:44:04;;;;;;;17.00;10.85;;;17.20;99.90;;;;;;5073625;28;20170;-51
2023/06/08 02:46:31;;;;;;;15.57;12.13;;;17.10;99.90;;;;;;5073966;28;20233;-52
2023/06/08 02:48:56;;;;;;;15.80;11.85;;;17.10;99.90;;;;;;5073848;28;20158;-51
2023/06/08 02:51:22;;;;;;;18.73;10.73;;;17.10;99.90;;;;;;5073492;28;20199;-52
2023/06/08 02:53:47;;;;;;;12.35;11.10;;;16.90;99.90;;;;;;5073432;28;20197;-51
2023/06/08 02:56:13;;;;;;;15.45;11.07;;;17.10;99.90;;;;;;5073299;28;20198;-51
2023/06/08 02:58:41;;;;;;;12.27;10.73;;;17.00;99.90;;;;;;5073338;28;20527;-53
2023/06/08 03:01:14;;;;;;;16.98;11.82;;;17.00;99.90;;;;;;5073333;28;20162;-52
2023/06/08 03:03:43;;;;;;;12.95;11.25;;;17.10;99.90;;;;;;5073566;28;20162;-52
2023/06/08 03:06:09;;;;;;;12.93;11.23;;;17.00;99.90;;;;;;5073427;28;20170;-52
2023/06/08 03:08:39;;;;;;;16.45;11.07;;;17.20;99.90;;;;;;5073014;28;20576;-51
2023/06/08 03:11:04;;;;;;;14.45;10.35;;;16.90;99.90;;;;;;5073285;28;20174;-51
2023/06/08 03:13:30;;;;;;;15.40;11.07;;;16.80;99.90;;;;;;5089767;28;20185;-50
2023/06/08 03:15:55;;;;;;;15.27;10.88;;;16.80;99.90;;;;;;5093111;28;20200;-52
2023/06/08 03:18:24;;;;;;;17.95;10.75;;;16.80;99.90;;;;;;5092722;28;20169;-51
2023/06/08 03:20:51;;;;;;;15.50;11.32;;;16.70;99.90;;;;;;5092241;28;20609;-51
2023/06/08 03:23:22;;;;;;;13.43;10.45;;;16.60;99.90;;;;;;5092955;28;20170;-51
2023/06/08 03:25:49;;;;;;;15.30;10.55;;;16.70;99.90;;;;;;5092905;28;20166;-51
2023/06/08 03:28:15;;;;;;;15.90;10.40;;;16.60;99.90;;;;;;5092952;28;20157;-51
2023/06/08 03:30:41;;;;;;;15.57;11.15;;;16.80;99.90;;;;;;5092867;28;20161;-49
2023/06/08 03:33:07;;;;;;;15.88;10.85;;;16.70;99.90;;;;;;5092785;28;20165;-52
2023/06/08 03:35:32;;;;;;;16.38;10.68;;;16.70;99.90;;;;;;5092664;28;20176;-52
2023/06/08 03:37:58;;;;;;;13.93;9.57;;;16.80;99.90;;;;;;5093222;28;20534;-51
2023/06/08 03:40:23;;;;;;;14.32;10.50;;;16.80;99.90;;;;;;5092653;28;20244;-49
2023/06/08 03:42:50;;;;;;;18.88;10.35;;;16.70;99.90;;;;;;5092649;28;20172;-49
2023/06/08 03:45:17;;;;;;;22.38;11.18;;;16.70;99.90;;;;;;5092597;28;20168;-49
2023/06/08 03:47:42;;;;;;;14.35;10.55;;;16.70;99.90;;;;;;5092573;28;20236;-49
2023/06/08 03:50:08;;;;;;;17.45;10.43;;;16.50;99.90;;;;;;5092489;28;20685;-48
2023/06/08 03:52:34;;;;;;;20.77;10.40;;;16.70;99.90;;;;;;5074633;28;20176;-48
2023/06/08 03:55:00;;;;;;;14.65;10.15;;;16.60;99.90;;;;;;5093061;28;20180;-48
2023/06/08 03:57:25;;;;;;;12.68;9.90;;;17.70;99.90;;;;;;5092255;28;20562;-48
2023/06/08 03:59:51;;;;;;;14.07;9.48;;;16.60;99.90;;;;;;5092280;28;20211;-48
2023/06/08 04:02:16;;;;;;;19.92;10.45;;;16.90;99.90;;;;;;5092520;28;20161;-49
2023/06/08 04:04:44;;;;;;;18.35;9.52;;;16.70;99.90;;;;;;5091805;28;20240;-49
2023/06/08 04:07:11;;;;;;;18.42;10.40;;;16.80;99.90;;;;;;5092243;28;20216;-48
2023/06/08 04:09:37;;;;;;;13.15;9.93;;;17.20;99.90;;;;;;5092119;28;20208;-48
2023/06/08 04:12:02;;;;;;;14.00;9.18;;;17.00;99.90;;;;;;5092159;28;20197;-48
2023/06/08 04:14:28;;;;;;;17.30;9.82;;;17.00;99.90;;;;;;5092641;28;20180;-48
2023/06/08 04:16:54;;;;;;;17.90;10.40;;;17.10;99.90;;;;;;5091968;28;20205;-48
2023/06/08 04:19:19;;;;;;;21.52;10.02;;;17.00;99.90;;;;;;5092033;28;20161;-49
2023/06/08 04:21:45;;;;;;;19.30;9.75;;;17.00;99.90;;;;;;5091968;28;20169;-48
2023/06/08 04:24:10;;;;;;;15.93;9.95;;;17.10;99.90;;;;;;5091937;28;20161;-48
2023/06/08 04:26:36;;;;;;;13.18;9.77;;;17.00;99.90;;;;;;5074266;28;20218;-48
2023/06/08 04:29:03;;;;;;;17.10;9.85;;;17.30;99.90;;;;;;5092185;28;20173;-49
2023/06/08 04:31:30;;;;;;;16.67;10.15;;;17.00;99.90;;;;;;5092461;28;20169;-48
2023/06/08 04:33:56;;;;;;;11.85;8.57;;;17.10;99.90;;;;;;5092048;28;20169;-48
2023/06/08 04:36:22;;;;;;;14.50;8.82;;;17.30;99.90;;;;;;5091722;28;20254;-49
2023/06/08 04:38:47;;;;;;;15.52;9.18;;;17.50;99.90;;;;;;5091651;28;20647;-48
2023/06/08 04:41:14;;;;;;;14.85;8.57;;;17.30;99.90;;;;;;5091802;28;20181;-48
2023/06/08 04:43:40;;;;;;;17.70;9.30;;;17.70;99.90;;;;;;5092014;28;20165;-48
2023/06/08 04:46:05;;;;;;;15.93;9.25;;;17.60;99.90;;;;;;5091672;28;20184;-48
2023/06/08 04:48:35;;;;;;;13.40;8.80;;;17.90;99.90;;;;;;5091638;28;20205;-48
2023/06/08 04:51:03;;;;;;;12.65;8.50;;;17.90;99.90;;;;;;5092303;28;20202;-48
2023/06/08 04:53:35;;;;;;;15.57;8.50;;;17.90;99.90;;;;;;5092261;28;20165;-48
2023/06/08 04:56:02;;;;;;;9.27;8.18;;;18.10;99.90;;;;;;5091504;28;20193;-48
2023/06/08 04:58:28;;;;;;;18.73;8.55;;;18.20;99.90;;;;;;5091971;28;20173;-48
2023/06/08 05:00:55;;;;;;;13.32;8.35;;;18.10;99.90;;;;;;5073762;28;20218;-48
2023/06/08 05:03:21;;;;;;;12.43;7.93;;;18.90;99.90;;;;;;5091440;28;20181;-48
2023/06/08 05:05:47;;;;;;;16.63;9.57;;;18.30;99.90;;;;;;5091761;28;20170;-48
2023/06/08 05:08:13;;;;;;;13.55;8.20;;;18.30;99.90;;;;;;5091384;28;20584;-48
2023/06/08 05:10:39;;;;;;;19.27;8.65;;;18.30;99.90;;;;;;5091457;28;20161;-48
2023/06/08 05:13:05;;;;;;;14.00;8.13;;;18.50;99.90;;;;;;5091425;28;20528;-48
2023/06/08 05:15:33;;;;;;;17.25;8.75;;;18.90;99.90;;;;;;5091742;28;20165;-49
2023/06/08 05:17:59;;;;;;;13.25;8.45;;;18.50;99.90;;;;;;5092185;28;20539;-52
2023/06/08 05:20:26;;;;;;;13.35;8.38;;;18.50;99.90;;;;;;5091328;28;20172;-51
2023/06/08 05:22:52;;;;;;;15.27;8.32;;;18.60;99.90;;;;;;5091336;28;20274;-52
2023/06/08 05:25:18;;;;;;;11.82;8.63;;;18.80;99.90;;;;;;5091293;28;20260;-52
2023/06/08 05:27:44;;;;;;;15.55;9.52;;;18.60;99.90;;;;;;5091292;28;20208;-50
2023/06/08 05:30:10;;;;;;;14.25;8.35;;;18.80;99.90;;;;;;5091498;28;20193;-51
2023/06/08 05:32:35;;;;;;;14.77;8.90;;;18.90;99.90;;;;;;5091350;28;20169;-51
2023/06/08 05:35:02;;;;;;;15.32;7.93;;;19.20;99.90;;;;;;5091151;28;20210;-48
2023/06/08 05:37:28;;;;;;;13.90;9.02;;;18.70;99.90;;;;;;5091562;28;20730;-52
2023/06/08 05:39:53;;;;;;;13.63;8.38;;;18.80;99.90;;;;;;5091077;28;20165;-52
2023/06/08 05:42:20;;;;;;;14.48;8.55;;;18.90;99.90;;;;;;5091217;28;20638;-51
2023/06/08 05:44:46;;;;;;;16.42;9.18;;;19.10;99.90;;;;;;5094203;28;20170;-49
2023/06/08 05:47:11;;;;;;;17.25;8.48;;;19.10;99.90;;;;;;5094992;28;20249;-49
2023/06/08 05:49:37;;;;;;;15.60;8.70;;;19.10;99.90;;;;;;5094764;28;20172;-48
2023/06/08 05:52:03;;;;;;;14.93;9.48;;;19.40;99.90;;;;;;5094775;28;20222;-48
2023/06/08 05:54:28;;;;;;;12.52;8.30;;;19.40;99.90;;;;;;5095350;28;20260;-48
2023/06/08 05:56:54;;;;;;;13.48;8.45;;;19.40;99.90;;;;;;5094593;28;20205;-49
2023/06/08 05:59:19;;;;;;;17.13;8.65;;;19.50;99.90;;;;;;5094712;28;20200;-48
2023/06/08 06:01:45;;;;;;;12.73;8.85;;;19.40;99.90;;;;;;5094906;28;20177;-48
2023/06/08 06:04:11;;;;;;;14.90;9.63;;;20.60;99.90;;;;;;5094620;28;20162;-48
2023/06/08 06:06:37;;;;;;;16.00;9.90;;;19.80;99.90;;;;;;5094650;28;20161;-48
2023/06/08 06:09:03;;;;;;;13.55;8.70;;;19.50;99.90;;;;;;5094484;28;20205;-48
2023/06/08 06:11:29;;;;;;;17.10;9.45;;;19.60;99.90;;;;;;5095098;28;20577;-48
2023/06/08 06:13:58;;;;;;;14.13;9.35;;;19.70;99.90;;;;;;5094381;28;20157;-48
2023/06/08 06:16:23;;;;;;;11.10;9.77;;;19.70;99.90;;;;;;5094216;28;20197;-48
2023/06/08 06:18:50;;;;;;;15.80;9.10;;;19.80;99.90;;;;;;5094300;28;20167;-48
2023/06/08 06:21:16;;;;;;;14.38;9.25;;;19.80;99.90;;;;;;5094620;28;20242;-48
2023/06/08 06:23:41;;;;;;;12.65;9.40;;;19.70;99.90;;;;;;5094457;28;20207;-48
2023/06/08 06:26:07;;;;;;;14.80;9.63;;;19.90;99.90;;;;;;5094165;28;20169;-48
2023/06/08 06:28:32;;;;;;;17.33;9.32;;;20.00;99.90;;;;;;5094145;28;20169;-48
2023/06/08 06:30:58;;;;;;;13.25;9.60;;;19.90;99.90;;;;;;5094396;28;20170;-48
2023/06/08 06:33:23;;;;;;;19.17;9.07;;;20.00;99.90;;;;;;5094013;28;20219;-48
2023/06/08 06:35:50;;;;;;;14.93;8.45;;;19.90;99.90;;;;;;5093922;28;20211;-51
2023/06/08 06:38:17;;;;;;;15.07;9.02;;;20.30;99.90;;;;;;5094157;28;20181;-52
2023/06/08 06:40:43;;;;;;;14.23;9.07;;;20.10;99.90;;;;;;5093766;28;20569;-51
2023/06/08 06:43:09;;;;;;;11.10;8.43;;;20.20;99.90;;;;;;5093589;28;20222;-52
2023/06/08 06:45:34;;;;;;;16.25;9.40;;;20.50;99.90;;;;;;5094073;28;20535;-51
2023/06/08 06:48:00;;;;;;;15.05;8.73;;;20.30;99.90;;;;;;5094185;28;20169;-48
2023/06/08 06:50:26;;;;;;;14.90;9.35;;;20.30;99.90;;;;;;5094132;28;20169;-49
2023/06/08 06:52:51;;;;;;;16.65;9.90;;;20.20;99.90;;;;;;5093657;28;20250;-50
2023/06/08 06:55:17;;;;;;;16.83;8.88;;;20.30;99.90;;;;;;5092425;28;20188;-51
2023/06/08 06:57:42;;;;;;;18.33;11.50;;;20.40;99.90;;;;;;5093684;28;20209;-48
2023/06/08 07:00:10;;;;;;;14.80;9.02;;;20.40;99.90;;;;;;5093500;28;20655;-51
2023/06/08 07:02:38;;;;;;;18.92;9.35;;;20.60;99.90;;;;;;5093463;28;20659;-52
2023/06/08 07:05:07;;;;;;;13.57;8.90;;;20.50;99.90;;;;;;5093588;28;20177;-49
2023/06/08 07:07:36;;;;;;;15.38;8.95;;;20.80;99.90;;;;;;5093345;28;20603;-50
2023/06/08 07:10:02;;;;;;;13.27;9.38;;;20.80;99.90;;;;;;5093318;28;20654;-49
2023/06/08 07:12:29;;;;;;;17.05;9.07;;;20.80;99.90;;;;;;5093597;28;20170;-48
2023/06/08 07:14:55;;;;;;;18.17;9.57;;;20.80;99.90;;;;;;5093783;28;20170;-50
2023/06/08 07:17:22;;;;;;;19.02;10.13;;;21.00;99.90;;;;;;5093218;28;20316;-50
2023/06/08 07:19:48;;;;;;;14.45;8.80;;;21.20;99.90;;;;;;5092994;28;20596;-51
2023/06/08 07:22:14;;;;;;;14.18;8.80;;;21.20;99.90;;;;;;5092871;28;20172;-48
2023/06/08 07:24:39;;;;;;;14.02;9.20;;;21.10;99.90;;;;;;5092943;28;20201;-49
2023/06/08 07:27:06;;;;;;;11.57;8.95;;;21.10;99.90;;;;;;5093301;28;20180;-48
2023/06/08 07:29:32;;;;;;;12.20;8.77;;;21.40;99.90;;;;;;5093202;28;20177;-48
2023/06/08 07:31:57;;;;;;;11.85;9.68;;;21.50;99.90;;;;;;5093271;28;20598;-49
2023/06/08 07:34:23;;;;;;;12.25;8.18;;;21.50;99.90;;;;;;5092795;28;20248;-51
2023/06/08 07:36:49;;;;;;;12.55;7.95;;;21.60;99.90;;;;;;5093037;28;20699;-49
2023/06/08 07:39:14;;;;;;;13.82;9.52;;;21.50;99.90;;;;;;5092679;28;20561;-48
2023/06/08 07:41:40;;;;;;;12.10;8.02;;;21.80;99.90;;;;;;5092997;28;20173;-48
2023/06/08 07:44:05;;;;;;;9.57;7.95;;;22.00;99.90;;;;;;5092679;28;20168;-49
2023/06/08 07:46:31;;;;;;;11.60;8.38;;;22.00;99.90;;;;;;5092614;28;20234;-48
2023/06/08 07:48:57;;;;;;;14.10;8.32;;;22.30;99.90;;;;;;5093231;28;20233;-49
2023/06/08 07:51:22;;;;;;;12.57;7.82;;;22.40;99.90;;;;;;5092530;28;20170;-50
2023/06/08 07:53:48;;;;;;;11.65;7.75;;;22.20;99.90;;;;;;5092434;28;20625;-51
2023/06/08 07:56:14;;;;;;;13.60;8.07;;;22.40;99.90;;;;;;5092355;28;20193;-50
2023/06/08 07:58:40;;;;;;;12.38;8.55;;;22.70;99.90;;;;;;5092633;28;20169;-49
2023/06/08 08:01:06;;;;;;;11.90;7.85;;;22.20;99.90;;;;;;5092343;28;20176;-48
2023/06/08 08:03:37;;;;;;;12.43;7.53;;;22.60;99.90;;;;;;5092262;28;20161;-49
2023/06/08 08:06:03;;;;;;;11.50;8.50;;;22.50;99.90;;;;;;5091887;28;20621;-49
2023/06/08 08:08:28;;;;;;;10.73;7.78;;;22.80;99.90;;;;;;5092511;28;20221;-49
2023/06/08 08:10:54;;;;;;;10.82;7.63;;;22.70;99.90;;;;;;5092790;28;20542;-48
2023/06/08 08:13:20;;;;;;;15.05;8.07;;;23.00;99.90;;;;;;5092166;28;20639;-48
2023/06/08 08:15:45;;;;;;;11.95;8.15;;;23.40;99.90;;;;;;5092061;28;20161;-51
2023/06/08 08:18:12;;;;;;;12.85;8.10;;;23.80;99.90;;;;;;5092070;28;20501;-49
2023/06/08 08:20:38;;;;;;;14.77;7.88;;;23.20;99.90;;;;;;5092097;28;20242;-48
2023/06/08 08:23:05;;;;;;;9.73;7.88;;;23.80;99.90;;;;;;5091998;28;20223;-49
2023/06/08 08:25:31;;;;;;;11.50;8.27;;;23.70;99.90;;;;;;5092196;28;20172;-50
2023/06/08 08:27:56;;;;;;;9.30;7.38;;;23.30;99.90;;;;;;5092434;28;20153;-48
2023/06/08 08:30:22;;;;;;;9.07;7.40;;;23.50;99.90;;;;;;5091897;28;20173;-49
2023/06/08 08:32:48;;;;;;;16.20;7.57;;;24.00;99.90;;;;;;5091803;28;20469;-49
2023/06/08 08:35:14;;;;;;;13.32;9.70;;;23.90;99.90;;;;;;5091855;28;20187;-51
2023/06/08 08:37:42;;;;;;;9.73;8.05;;;23.20;99.90;;;;;;5091737;28;20211;-48
2023/06/08 08:40:09;;;;;;;8.93;7.53;;;23.70;99.90;;;;;;5091777;28;20179;-49
2023/06/08 08:42:41;;;;;;;8.35;7.20;;;23.40;99.90;;;;;;5091965;28;20169;-48
2023/06/08 08:45:09;;;;;;;10.10;7.35;;;23.70;99.90;;;;;;5091659;28;20173;-52
2023/06/08 08:47:35;;;;;;;10.35;8.35;;;23.80;99.90;;;;;;5091479;28;20153;-51
2023/06/08 08:50:09;;;;;;;10.20;8.10;;;24.20;99.90;;;;;;5091916;28;20185;-51
2023/06/08 08:52:38;;;;;;;8.57;7.68;;;24.10;99.90;;;;;;5091832;28;20169;-52
2023/06/08 08:55:05;;;;;;;10.93;7.85;;;24.90;99.90;;;;;;5091303;28;20656;-52
2023/06/08 08:57:31;;;;;;;10.40;7.32;;;24.20;99.90;;;;;;5090772;28;20577;-51
2023/06/08 08:59:58;;;;;;;9.00;6.50;;;24.90;99.90;;;;;;5091868;28;20176;-51
2023/06/08 09:02:24;;;;;;;8.13;6.80;;;24.50;99.90;;;;;;5091465;28;20177;-52
2023/06/08 09:04:52;;;;;;;8.00;7.15;;;24.90;99.90;;;;;;5090886;28;20168;-51
2023/06/08 09:07:19;;;;;;;8.70;7.32;;;25.10;99.90;;;;;;5090882;28;20219;-51
2023/06/08 09:10:14;;;;;;;9.68;7.20;;;24.40;99.90;;;;;;5091506;28;20165;-51
2023/06/08 09:12:47;;;;;;;8.27;7.40;;;24.60;99.90;;;;;;5091466;28;20229;-48
2023/06/08 09:15:23;;;;;;;12.32;7.10;;;24.50;99.90;;;;;;5091425;28;20188;-50
2023/06/08 09:17:48;;;;;;;7.57;6.72;;;24.80;99.90;;;;;;5091248;28;20668;-49
2023/06/08 09:20:14;;;;;;;9.65;6.88;;;25.00;99.90;;;;;;5094960;28;20206;-48
2023/06/08 09:22:39;;;;;;;10.60;8.05;;;25.20;99.90;;;;;;5094782;28;20620;-49
2023/06/08 09:25:06;;;;;;;10.55;7.75;;;26.00;99.90;;;;;;5095352;28;20165;-49
2023/06/08 09:27:32;;;;;;;11.80;7.70;;;25.30;99.90;;;;;;5095287;28;20555;-49
2023/06/08 09:30:00;;;;;;;8.73;6.70;;;25.40;99.90;;;;;;5096024;28;20234;-51
2023/06/08 09:32:36;;;;;;;8.32;6.57;;;25.50;99.90;;;;;;5095717;28;20256;-49
2023/06/08 09:35:03;;;;;;;8.27;7.00;;;25.30;99.90;;;;;;5095329;28;20169;-49
2023/06/08 09:37:29;;;;;;;10.57;6.57;;;25.30;99.90;;;;;;5095484;28;20558;-49
2023/06/08 09:39:55;;;;;;;8.93;6.75;;;24.30;99.90;;;;;;5095709;28;20175;-49
2023/06/08 09:42:21;;;;;;;10.45;7.53;;;26.10;99.90;;;;;;5094931;28;20566;-48
2023/06/08 09:44:47;;;;;;;9.90;6.95;;;26.50;99.90;;;;;;5094744;28;20169;-48
2023/06/08 09:47:25;;;;;;;11.25;8.48;;;26.10;99.90;;;;;;5076720;28;20189;-49
2023/06/08 09:49:55;;;;;;;9.45;8.13;;;25.80;99.90;;;;;;5094913;28;20157;-48
2023/06/08 09:52:23;;;;;;;14.48;9.32;;;25.80;99.90;;;;;;5095094;28;20196;-49
2023/06/08 09:54:50;;;;;;;11.73;8.35;;;26.10;99.90;;;;;;5094792;28;20625;-51
2023/06/08 09:57:17;;;;;;;11.07;8.77;;;25.90;99.90;;;;;;5093178;28;20205;-49
2023/06/08 09:59:46;;;;;;;12.43;8.65;;;26.00;99.90;;;;;;5078967;28;20191;-50
2023/06/08 10:02:53;;;;;;;9.57;8.18;;;25.80;99.90;;;;;;5082276;28;20174;-49
2023/06/08 10:05:22;;;;;;;14.55;9.85;;;26.00;99.90;;;;;;5066378;28;20181;-48
2023/06/08 10:07:51;;;;;;;9.98;7.95;;;26.20;99.90;;;;;;5080987;28;20220;-48
2023/06/08 10:10:21;;;;;;;13.82;8.63;;;26.30;99.90;;;;;;5093949;28;20161;-48
2023/06/08 10:12:47;;;;;;;8.93;7.70;;;26.20;99.90;;;;;;5093928;28;20272;-49
2023/06/08 10:15:14;;;;;;;12.07;8.13;;;26.30;99.90;;;;;;5094316;28;20213;-51
2023/06/08 10:17:40;;;;;;;30.25;12.55;;;26.50;99.90;;;;;;5094256;28;20204;-48
2023/06/08 10:20:06;;;;;;;13.88;9.68;;;26.50;99.90;;;;;;5090894;28;20245;-48
2023/06/08 10:22:32;;;;;;;8.70;7.43;;;26.40;99.90;;;;;;5090680;28;20652;-50
2023/06/08 10:24:58;;;;;;;10.55;7.72;;;26.50;99.90;;;;;;5093703;28;20228;-49
2023/06/08 10:27:24;;;;;;;8.93;8.02;;;27.30;99.90;;;;;;5094617;28;20161;-48
2023/06/08 10:29:57;;;;;;;12.57;8.05;;;26.40;99.90;;;;;;5092623;28;20181;-48
2023/06/08 10:32:34;;;;;;;10.48;7.60;;;27.00;99.90;;;;;;5092917;28;20229;-48
2023/06/08 10:35:04;;;;;;;9.60;8.07;;;27.10;99.90;;;;;;5093253;28;20295;-48
2023/06/08 10:37:31;;;;;;;9.48;7.20;;;27.00;99.90;;;;;;5074127;28;20235;-48
2023/06/08 10:40:06;;;;;;;21.77;13.85;;;27.10;99.90;;;;;;5073870;28;20185;-48
2023/06/08 10:42:32;;;;;;;20.45;10.85;;;27.30;99.90;;;;;;5072813;28;20161;-49
2023/06/08 10:44:58;;;;;;;13.38;8.80;;;27.30;99.90;;;;;;5073395;28;20299;-47
2023/06/08 10:47:25;;;;;;;9.18;8.20;;;27.30;99.90;;;;;;5090355;28;20574;-50
2023/06/08 10:49:56;;;;;;;10.45;7.78;;;27.70;99.90;;;;;;5092264;28;20180;-48
2023/06/08 10:52:23;;;;;;;12.25;8.20;;;27.70;99.90;;;;;;5074190;28;20184;-48
2023/06/08 10:55:05;;;;;;;11.90;7.95;;;27.90;99.90;;;;;;5088638;28;20980;-47
2023/06/08 10:57:53;;;;;;;10.57;7.68;;;27.60;99.90;;;;;;5072377;28;20213;-48
2023/06/08 11:00:31;;;;;;;10.95;8.02;;;27.20;99.90;;;;;;5073238;28;20158;-48
2023/06/08 11:03:05;;;;;;;13.68;9.02;;;28.00;99.90;;;;;;5073116;28;20168;-48
2023/06/08 11:05:32;;;;;;;8.55;7.68;;;28.40;99.90;;;;;;5073234;28;20169;-48
2023/06/08 11:08:00;;;;;;;9.48;7.55;;;28.40;99.90;;;;;;5073326;28;20224;-48
2023/06/08 11:10:26;;;;;;;9.55;7.90;;;28.80;99.90;;;;;;5073636;28;20180;-48
2023/06/08 11:12:51;;;;;;;11.95;7.78;;;28.40;99.90;;;;;;5075754;28;20188;-48
2023/06/08 11:15:18;;;;;;;12.40;8.25;;;28.30;99.90;;;;;;5080391;28;20173;-47
2023/06/08 11:17:51;;;;;;;11.38;7.55;;;28.10;99.90;;;;;;5091397;28;20702;-48
2023/06/08 11:20:17;;;;;;;11.50;8.27;;;28.10;99.90;;;;;;5092886;28;20226;-48
2023/06/08 11:22:42;;;;;;;9.48;7.45;;;28.40;99.90;;;;;;5092976;28;20203;-47
2023/06/08 11:25:08;;;;;;;11.43;7.22;;;28.00;99.90;;;;;;5080833;28;20233;-47
2023/06/08 11:27:43;;;;;;;8.38;6.65;;;28.10;99.90;;;;;;5075088;28;20227;-49
2023/06/08 11:30:09;;;;;;;12.02;8.70;;;27.90;99.90;;;;;;5092033;28;20648;-52
2023/06/08 11:32:37;;;;;;;8.73;7.10;;;27.60;99.90;;;;;;5081550;28;20212;-47
2023/06/08 11:35:05;;;;;;;7.65;6.63;;;28.00;99.90;;;;;;5074485;28;20173;-47
2023/06/08 11:37:33;;;;;;;11.57;6.95;;;27.80;99.90;;;;;;5071820;28;20233;-48
2023/06/08 11:39:59;;;;;;;7.45;6.70;;;28.10;99.90;;;;;;5086021;28;20176;-48
2023/06/08 11:42:25;;;;;;;9.10;5.88;;;28.40;99.90;;;;;;5091490;28;20181;-48
2023/06/08 11:44:50;;;;;;;7.20;6.45;;;28.60;99.90;;;;;;5092093;28;20180;-48
2023/06/08 11:47:19;;;;;;;6.85;5.65;;;29.00;99.90;;;;;;5092087;28;20196;-48
2023/06/08 11:49:55;;;;;;;8.20;5.70;;;28.90;99.90;;;;;;5092048;28;20528;-49
2023/06/08 11:52:25;;;;;;;6.55;5.82;;;29.20;99.90;;;;;;5086961;28;20274;-51
2023/06/08 11:54:55;;;;;;;7.03;5.45;;;29.10;99.90;;;;;;5091925;28;20188;-48
2023/06/08 11:57:21;;;;;;;6.57;5.80;;;29.00;99.90;;;;;;5091786;28;20578;-48
2023/06/08 11:59:47;;;;;;;7.57;5.50;;;29.70;99.90;;;;;;5091683;28;20188;-49
2023/06/08 12:02:13;;;;;;;6.45;5.10;;;29.90;99.90;;;;;;5083706;28;20276;-48
2023/06/08 12:04:40;;;;;;;5.75;5.20;;;29.80;99.90;;;;;;5086729;28;20251;-49
2023/06/08 12:07:10;;;;;;;6.65;5.65;;;29.80;99.90;;;;;;5078818;28;20225;-50
2023/06/08 12:09:36;;;;;;;5.43;4.93;;;29.80;99.10;;;;;;5071391;28;20164;-48
2023/06/08 12:12:08;;;;;;;6.85;5.57;;;30.20;99.90;;;;;;5071653;28;20172;-51
2023/06/08 12:14:35;;;;;;;7.43;6.68;;;30.10;99.90;;;;;;5082857;28;20177;-51
2023/06/08 12:17:04;;;;;;;9.50;7.47;;;26.90;99.90;;;;;;5091606;28;20208;-51
2023/06/08 12:19:31;;;;;;;10.50;7.22;;;29.20;99.90;;;;;;5091608;28;20169;-51
2023/06/08 12:21:57;;;;;;;8.45;7.13;;;28.80;99.90;;;;;;5074142;28;20196;-50
2023/06/08 12:24:22;;;;;;;9.35;6.95;;;28.70;99.90;;;;;;5073824;28;20165;-51
2023/06/08 12:26:48;;;;;;;8.27;6.70;;;28.50;99.90;;;;;;5091900;28;20643;-52
2023/06/08 12:29:14;;;;;;;9.90;7.32;;;28.50;99.90;;;;;;5091556;28;20164;-50
2023/06/08 12:31:40;;;;;;;8.90;7.15;;;28.50;99.90;;;;;;5078704;28;20237;-52
2023/06/08 12:34:06;;;;;;;9.25;6.40;;;28.70;99.90;;;;;;5071479;28;20176;-52
2023/06/08 12:36:31;;;;;;;6.45;5.85;;;29.10;99.90;;;;;;5088630;28;20272;-51
2023/06/08 12:38:57;;;;;;;8.63;6.93;;;28.60;99.90;;;;;;5092356;28;20213;-51